Time;durP1;ratioP1;P1;durP2;ratioP2;P2;SDS_P1;SDS_P2;PMS_P1;PMS_P2;Temp;Humidity;BMP_temperature;BMP_pressure;BME280_temperature;BME280_humidity;BME280_pressure;Samples;Min_cycle;Max_cycle;Signal;HPM_P1;HPM_P2
2022/06/14 00:03:12;;;;;;;4.65;2.03;;;;;;;11.11;66.15;100372.22;5007044;28;20052;-72
2022/06/14 00:05:37;;;;;;;6.65;2.72;;;;;;;11.06;65.90;100370.72;5007174;28;20612;-72
2022/06/14 00:08:03;;;;;;;6.68;2.20;;;;;;;11.03;66.35;100379.59;5006803;28;20045;-72
2022/06/14 00:10:28;;;;;;;8.45;2.30;;;;;;;10.97;66.33;100379.84;5007353;28;20125;-73
2022/06/14 00:12:54;;;;;;;6.50;2.75;;;;;;;10.95;65.95;100379.03;5007223;28;20515;-72
2022/06/14 00:15:20;;;;;;;6.53;2.47;;;;;;;10.89;66.75;100385.44;5007271;28;20046;-72
2022/06/14 00:17:45;;;;;;;10.05;3.30;;;;;;;10.79;66.86;100376.19;5006339;28;20757;-72
2022/06/14 00:20:11;;;;;;;6.00;2.08;;;;;;;10.73;67.16;100376.44;5007334;28;20052;-72
2022/06/14 00:22:37;;;;;;;4.20;2.22;;;;;;;10.66;67.34;100372.34;5006820;28;20038;-72
2022/06/14 00:25:03;;;;;;;7.78;2.65;;;;;;;10.63;67.90;100367.16;5007032;28;20042;-73
2022/06/14 00:27:29;;;;;;;5.53;2.42;;;;;;;10.60;67.83;100369.94;5004950;28;20033;-72
2022/06/14 00:29:54;;;;;;;5.28;2.72;;;;;;;10.58;68.11;100370.00;5006718;28;20045;-72
2022/06/14 00:32:20;;;;;;;7.32;2.80;;;;;;;10.54;68.24;100371.06;5006868;28;20048;-72
2022/06/14 00:34:45;;;;;;;4.18;2.67;;;;;;;10.47;68.28;100365.16;5006918;28;20057;-72
2022/06/14 00:37:16;;;;;;;5.25;2.80;;;;;;;10.45;68.78;100363.50;5006471;28;20121;-72
2022/06/14 00:39:42;;;;;;;9.88;2.90;;;;;;;10.43;68.60;100362.69;5006866;28;20404;-73
2022/06/14 00:42:22;;;;;;;8.43;2.85;;;;;;;10.34;68.63;100363.03;5006242;28;20038;-72
2022/06/14 00:45:26;;;;;;;6.28;2.58;;;;;;;10.15;69.89;100360.25;5006001;28;20038;-72
2022/06/14 00:48:07;;;;;;;5.93;2.97;;;;;;;10.20;69.47;100355.66;4992618;28;20038;-72
2022/06/14 00:50:39;;;;;;;7.80;2.58;;;;;;;10.25;69.39;100366.88;5006566;28;20116;-72
2022/06/14 00:53:11;;;;;;;5.15;2.20;;;;;;;10.21;69.09;100355.59;5006828;28;20037;-72
2022/06/14 00:55:42;;;;;;;10.07;2.80;;;;;;;10.17;69.74;100354.00;5001782;28;20042;-74
2022/06/14 00:58:09;;;;;;;14.82;2.95;;;;;;;10.14;69.36;100362.03;4986125;28;20153;-72
2022/06/14 01:00:46;;;;;;;6.80;2.33;;;;;;;10.10;69.41;100358.63;4980995;28;20058;-72
2022/06/14 01:03:21;;;;;;;6.28;2.65;;;;;;;10.07;69.30;100353.50;4987053;28;20653;-72
2022/06/14 01:06:07;;;;;;;10.35;3.42;;;;;;;10.02;70.14;100359.88;4985265;28;20034;-72
2022/06/14 01:08:39;;;;;;;;;;;;;;;9.97;70.34;100357.41;5002988;28;20038;-72
2022/06/14 01:11:08;;;;;;;5.18;2.15;;;;;;;9.91;70.41;100354.13;5006827;28;20043;-72
2022/06/14 01:13:34;;;;;;;9.55;2.83;;;;;;;9.83;70.66;100359.69;5006256;28;20041;-72
2022/06/14 01:16:00;;;;;;;6.60;2.63;;;;;;;9.80;70.79;100346.63;5005776;28;20518;-73
2022/06/14 01:18:28;;;;;;;5.30;2.30;;;;;;;9.84;70.33;100350.84;5005476;28;20136;-73
2022/06/14 01:20:54;;;;;;;9.35;3.20;;;;;;;9.78;70.71;100346.69;5005876;28;20117;-72
2022/06/14 01:23:19;;;;;;;7.75;2.42;;;;;;;9.76;70.99;100343.25;5006100;28;20532;-72
2022/06/14 01:25:50;;;;;;;6.93;2.92;;;;;;;9.70;70.90;100340.84;5006075;28;20042;-72
2022/06/14 01:28:20;;;;;;;4.65;2.40;;;;;;;9.68;70.91;100338.25;5005690;28;20121;-72
2022/06/14 01:30:50;;;;;;;8.50;2.47;;;;;;;9.67;70.88;100333.03;5006443;28;20461;-73
2022/06/14 01:33:16;;;;;;;8.23;3.50;;;;;;;9.66;70.75;100336.59;5006340;28;20068;-72
2022/06/14 01:35:45;;;;;;;6.68;2.97;;;;;;;9.58;71.38;100336.03;5006542;28;20057;-72
2022/06/14 01:38:14;;;;;;;7.07;2.83;;;;;;;9.54;71.36;100337.03;5005364;28;20444;-72
2022/06/14 01:40:47;;;;;;;9.10;3.60;;;;;;;9.58;71.55;100339.50;5005943;28;20241;-72
2022/06/14 01:43:35;;;;;;;6.70;2.53;;;;;;;9.62;71.25;100334.97;5005610;28;20064;-72
2022/06/14 01:46:23;;;;;;;7.47;2.92;;;;;;;9.63;70.63;100328.81;5004605;28;20042;-72
2022/06/14 01:52:02;;;;;;;7.38;3.03;;;;;;;9.58;70.63;100331.63;4985624;28;20060;-72
2022/06/14 01:54:48;;;;;;;4.65;2.28;;;;;;;9.55;70.27;100338.75;4985294;28;20061;-72
2022/06/14 01:57:39;;;;;;;4.68;2.55;;;;;;;9.47;70.63;100331.13;5002579;28;20038;-72
2022/06/14 02:00:09;;;;;;;6.85;2.80;;;;;;;9.42;71.31;100328.66;5006061;28;20065;-73
2022/06/14 02:02:45;;;;;;;6.30;2.38;;;;;;;9.40;70.89;100333.16;5005709;28;20041;-73
2022/06/14 02:05:25;;;;;;;5.20;2.28;;;;;;;9.41;71.07;100331.38;5005217;28;20065;-73
2022/06/14 02:08:01;;;;;;;4.43;2.95;;;;;;;9.37;71.31;100330.59;5007059;28;20501;-73
2022/06/14 02:10:29;;;;;;;;;;;;;;;9.29;72.14;100334.44;5009352;28;20052;-73
2022/06/14 02:13:36;;;;;;;5.22;2.70;;;;;;;9.23;71.98;100331.09;5008521;28;19939;-73
2022/06/14 02:16:15;;;;;;;7.00;3.47;;;;;;;9.29;71.72;100330.03;5000145;28;20049;-73
2022/06/14 02:18:53;;;;;;;8.85;2.85;;;;;;;9.19;71.99;100331.25;5015992;28;20038;-73
2022/06/14 02:21:33;;;;;;;7.93;3.28;;;;;;;9.23;71.12;100330.25;5016306;28;20041;-73
2022/06/14 02:24:15;;;;;;;5.97;3.13;;;;;;;9.24;71.97;100316.19;5009294;28;20052;-73
2022/06/14 02:26:56;;;;;;;5.78;2.60;;;;;;;9.21;72.06;100317.16;5009500;28;20038;-73
2022/06/14 02:29:29;;;;;;;10.40;2.97;;;;;;;9.17;71.61;100315.53;5010842;28;20038;-73
2022/06/14 02:32:04;;;;;;;5.18;2.53;;;;;;;9.16;71.73;100311.19;5011276;28;20088;-73
2022/06/14 02:34:36;;;;;;;5.18;2.15;;;;;;;9.15;72.13;100314.72;5006995;28;20053;-73
2022/06/14 02:37:13;;;;;;;8.10;3.50;;;;;;;9.12;72.17;100313.97;5004585;28;20057;-73
2022/06/14 02:40:03;;;;;;;5.90;2.38;;;;;;;9.12;71.75;100319.22;5005771;28;20033;-73
2022/06/14 02:42:35;;;;;;;7.53;2.95;;;;;;;9.10;71.72;100319.28;4994278;28;20125;-73
2022/06/14 02:45:12;;;;;;;5.88;2.90;;;;;;;9.01;71.79;100303.84;5004561;28;20037;-72
2022/06/14 02:47:54;;;;;;;7.70;3.40;;;;;;;9.03;72.54;100316.03;5004355;28;20124;-73
2022/06/14 02:50:27;;;;;;;4.93;2.85;;;;;;;9.00;72.10;100315.25;5004635;28;20034;-73
2022/06/14 02:53:00;;;;;;;11.52;2.80;;;;;;;8.98;71.89;100314.44;5005484;28;20405;-73
2022/06/14 02:55:34;;;;;;;6.32;2.60;;;;;;;8.93;72.28;100317.22;5005792;28;20049;-71
2022/06/14 02:58:13;;;;;;;13.47;3.10;;;;;;;8.89;72.54;100306.88;5005027;28;22108;-71
2022/06/14 03:00:41;;;;;;;4.38;2.20;;;;;;;8.85;72.52;100307.88;5005843;28;20065;-71
2022/06/14 03:03:19;;;;;;;11.68;2.85;;;;;;;8.80;72.71;100308.91;5005410;28;20061;-73
2022/06/14 03:05:55;;;;;;;9.23;3.63;;;;;;;8.75;72.88;100305.56;5006106;28;20480;-72
2022/06/14 03:08:37;;;;;;;7.47;2.60;;;;;;;8.71;72.67;100300.44;5008434;28;20149;-72
2022/06/14 03:11:03;;;;;;;8.50;2.60;;;;;;;8.68;73.23;100298.78;5008045;28;20050;-73
2022/06/14 03:13:35;;;;;;;5.07;2.53;;;;;;;8.66;72.70;100305.00;5008475;28;20100;-72
2022/06/14 03:16:00;;;;;;;6.05;2.70;;;;;;;8.62;72.90;100306.03;5007486;28;20437;-72
2022/06/14 03:18:36;;;;;;;8.02;2.85;;;;;;;8.58;73.00;100308.75;5007629;28;20041;-72
2022/06/14 03:21:01;;;;;;;;;;;;;;;8.57;73.15;100306.19;5008804;28;20049;-72
2022/06/14 03:23:40;;;;;;;6.13;2.83;;;;;;;8.53;73.02;100309.81;5008386;28;19917;-73
2022/06/14 03:26:13;;;;;;;4.70;2.65;;;;;;;8.48;73.15;100306.47;5007636;28;20038;-73
2022/06/14 03:28:54;;;;;;;3.10;1.88;;;;;;;8.47;73.32;100297.75;5006687;28;20489;-73
2022/06/14 03:31:32;;;;;;;5.30;2.50;;;;;;;8.49;72.81;100302.91;5007676;28;20040;-73
2022/06/14 03:34:31;;;;;;;9.30;3.00;;;;;;;8.47;73.34;100289.00;5008167;28;20048;-71
2022/06/14 03:36:57;;;;;;;7.85;2.85;;;;;;;8.44;73.62;100295.22;5007045;28;20034;-73
2022/06/14 03:39:28;;;;;;;5.60;2.92;;;;;;;8.45;73.58;100296.06;4999608;28;20358;-73
2022/06/14 03:41:55;;;;;;;6.22;3.22;;;;;;;8.42;72.88;100291.78;5007736;28;20056;-72
2022/06/14 03:44:22;;;;;;;7.30;2.65;;;;;;;8.42;73.38;100293.50;5007775;28;20041;-73
2022/06/14 03:47:09;;;;;;;7.75;2.60;;;;;;;8.42;72.91;100296.16;5006933;28;20038;-73
2022/06/14 03:49:37;;;;;;;5.78;3.00;;;;;;;8.39;73.06;100291.81;5007645;28;20722;-73
2022/06/14 03:52:40;;;;;;;4.50;2.67;;;;;;;8.37;73.20;100291.88;5005985;28;20044;-73
2022/06/14 03:55:27;;;;;;;4.00;2.55;;;;;;;8.37;73.30;100289.25;5007331;28;20425;-73
2022/06/14 03:58:26;;;;;;;6.47;2.47;;;;;;;8.38;73.09;100293.59;5007105;28;20034;-72
2022/06/14 04:01:23;;;;;;;8.63;3.78;;;;;;;8.36;73.64;100292.78;5007727;28;20398;-72
2022/06/14 04:03:55;;;;;;;5.43;2.50;;;;;;;8.37;73.31;100291.03;4998320;28;20040;-73
2022/06/14 04:07:01;;;;;;;5.40;2.50;;;;;;;8.35;73.39;100288.44;5007399;28;20091;-75
2022/06/14 04:09:59;;;;;;;9.25;2.60;;;;;;;8.38;73.37;100292.75;4985141;28;20414;-72
2022/06/14 04:12:46;;;;;;;6.45;3.08;;;;;;;8.42;73.72;100296.16;5007943;28;20107;-72
2022/06/14 04:15:47;;;;;;;6.03;2.75;;;;;;;8.47;73.61;100295.09;5007591;28;20485;-74
2022/06/14 04:18:43;;;;;;;9.40;3.90;;;;;;;8.51;73.62;100293.22;4983123;28;20747;-73
2022/06/14 04:21:31;;;;;;;4.28;2.55;;;;;;;8.55;72.82;100292.22;5007439;28;21138;-73
2022/06/14 04:24:25;;;;;;;4.05;3.17;;;;;;;8.59;72.96;100293.84;5008364;28;20060;-73
2022/06/14 04:27:15;;;;;;;9.82;3.90;;;;;;;8.67;72.73;100296.22;5006437;28;20064;-73
2022/06/14 04:29:50;;;;;;;5.90;3.20;;;;;;;8.68;72.74;100298.78;5006483;28;20096;-72
2022/06/14 04:32:42;;;;;;;9.65;3.05;;;;;;;8.70;73.12;100301.38;5007202;28;20050;-73
2022/06/14 04:35:34;;;;;;;6.88;2.85;;;;;;;8.71;73.04;100306.59;4991023;28;20421;-73
2022/06/14 04:38:06;;;;;;;4.88;2.63;;;;;;;8.75;72.91;100302.06;4991999;28;20034;-73
2022/06/14 04:40:40;;;;;;;14.15;3.20;;;;;;;8.82;73.08;100296.56;4992938;28;20038;-72
2022/06/14 04:43:13;;;;;;;9.48;3.08;;;;;;;8.94;72.54;100297.91;4995123;28;20107;-73
2022/06/14 04:45:56;;;;;;;3.75;2.63;;;;;;;9.01;73.08;100302.06;4991032;28;20133;-73
2022/06/14 04:48:31;;;;;;;6.97;2.80;;;;;;;9.10;72.98;100294.75;5004614;28;20469;-73
2022/06/14 04:51:21;;;;;;;4.50;2.67;;;;;;;9.20;72.20;100294.38;5006597;28;20033;-72
2022/06/14 04:54:07;;;;;;;8.18;3.20;;;;;;;9.34;72.26;100298.28;5006584;28;20092;-72
2022/06/14 04:56:51;;;;;;;5.82;2.80;;;;;;;9.54;71.83;100294.94;5005203;28;20041;-72
2022/06/14 04:59:22;;;;;;;4.97;2.60;;;;;;;9.68;72.01;100297.91;5006735;28;20041;-72
2022/06/14 05:01:54;;;;;;;5.45;2.47;;;;;;;9.84;71.70;100300.81;5007384;28;20048;-72
2022/06/14 05:04:30;;;;;;;6.82;2.65;;;;;;;9.94;71.31;100299.53;5006327;28;20441;-72
2022/06/14 05:07:05;;;;;;;8.52;2.45;;;;;;;10.10;70.66;100298.03;5004997;28;20089;-72
2022/06/14 05:09:37;;;;;;;6.40;2.87;;;;;;;10.31;70.74;100295.50;5006096;28;20402;-73
2022/06/14 05:12:18;;;;;;;5.13;2.63;;;;;;;10.48;70.00;100294.84;5006079;28;20704;-73
2022/06/14 05:14:56;;;;;;;8.15;3.33;;;;;;;10.69;69.43;100293.09;5005296;28;20412;-73
2022/06/14 05:17:50;;;;;;;7.70;3.40;;;;;;;10.84;69.20;100292.47;5003376;28;20099;-73
2022/06/14 05:20:21;;;;;;;9.00;2.92;;;;;;;10.97;69.03;100292.78;4998625;28;20041;-73
2022/06/14 05:23:02;;;;;;;10.32;3.90;;;;;;;11.11;69.08;100279.88;5005504;28;20125;-72
2022/06/14 05:25:42;;;;;;;12.88;3.42;;;;;;;11.27;68.25;100287.97;5006457;28;20405;-74
2022/06/14 05:28:13;;;;;;;9.50;4.18;;;;;;;11.46;67.59;100280.09;5005434;28;20073;-72
2022/06/14 05:31:06;;;;;;;11.02;3.53;;;;;;;11.68;66.68;100277.31;5005800;28;20046;-74
2022/06/14 05:33:54;;;;;;;10.15;4.05;;;;;;;11.87;66.62;100279.16;5002286;28;20124;-73
2022/06/14 05:36:52;;;;;;;13.02;3.72;;;;;;;12.12;66.01;100281.50;5006081;28;20037;-72
2022/06/14 05:39:20;;;;;;;10.50;3.85;;;;;;;12.29;65.40;100276.25;4957326;28;20115;-73
2022/06/14 05:41:51;;;;;;;11.27;3.78;;;;;;;12.57;64.16;100277.53;5012121;28;20033;-73
2022/06/14 05:44:32;;;;;;;8.32;3.50;;;;;;;12.75;63.21;100281.06;5008398;28;20034;-72
2022/06/14 05:47:08;;;;;;;6.25;3.33;;;;;;;12.97;62.05;100279.06;5007500;28;20038;-73
2022/06/14 05:49:41;;;;;;;10.73;3.67;;;;;;;13.25;60.37;100281.13;5007064;28;20041;-73
2022/06/14 05:52:10;;;;;;;7.10;3.97;;;;;;;13.64;59.40;100284.41;5006571;28;20037;-73
2022/06/14 05:55:05;;;;;;;13.65;3.45;;;;;;;14.14;57.32;100283.41;5006863;28;20060;-73
2022/06/14 05:57:40;;;;;;;8.70;3.35;;;;;;;14.32;56.24;100282.41;4981300;28;20046;-73
2022/06/14 06:00:10;;;;;;;13.32;4.70;;;;;;;14.43;55.45;100286.22;4985334;28;20034;-73
2022/06/14 06:03:13;;;;;;;57.45;44.50;;;;;;;14.40;55.68;100284.59;4998224;28;20545;-73
2022/06/14 06:05:47;;;;;;;7.97;5.00;;;;;;;14.43;55.58;100289.72;5006256;28;20046;-73
2022/06/14 06:08:31;;;;;;;11.23;4.05;;;;;;;14.49;55.31;100286.72;5005907;28;20034;-73
2022/06/14 06:11:05;;;;;;;8.43;4.05;;;;;;;14.57;54.59;100289.84;5005584;28;20049;-73
2022/06/14 06:13:43;;;;;;;9.55;3.58;;;;;;;14.67;54.34;100284.84;5005158;28;20048;-72
2022/06/14 06:16:13;;;;;;;10.45;4.30;;;;;;;14.72;54.87;100288.09;5004221;28;20056;-73
2022/06/14 06:19:01;;;;;;;5.82;3.60;;;;;;;14.81;54.19;100287.53;5005054;28;20082;-73
2022/06/14 06:21:49;;;;;;;10.95;4.88;;;;;;;14.89;53.79;100297.72;5005191;28;20030;-73
2022/06/14 06:24:27;;;;;;;28.00;5.70;;;;;;;14.88;54.50;100298.66;5004209;28;20125;-72
2022/06/14 06:27:12;;;;;;;6.90;3.80;;;;;;;14.87;54.23;100290.78;4999341;28;20560;-73
2022/06/14 06:29:52;;;;;;;9.60;3.70;;;;;;;14.77;53.46;100293.97;5004837;28;20037;-73
2022/06/14 06:32:20;;;;;;;7.03;3.30;;;;;;;14.63;53.48;100293.91;5005265;28;20393;-73
2022/06/14 06:34:48;;;;;;;6.05;3.15;;;;;;;14.63;53.20;100299.22;5004844;28;20034;-72
2022/06/14 06:37:19;;;;;;;11.07;3.35;;;;;;;14.82;53.39;100291.91;5002415;28;20045;-73
2022/06/14 06:40:24;;;;;;;10.55;3.92;;;;;;;15.12;52.37;100291.03;5005021;28;20037;-73
2022/06/14 06:43:02;;;;;;;8.55;3.15;;;;;;;15.30;51.05;100291.72;4986113;28;20045;-72
2022/06/14 06:45:31;;;;;;;8.07;3.55;;;;;;;15.51;50.91;100289.56;4985686;28;20045;-74
2022/06/14 06:48:13;;;;;;;6.40;2.83;;;;;;;15.72;51.04;100298.03;4984193;28;20120;-73
2022/06/14 06:50:45;;;;;;;11.52;3.80;;;;;;;15.74;50.22;100288.16;4986333;28;20600;-73
2022/06/14 06:53:13;;;;;;;11.45;4.32;;;;;;;15.83;49.81;100289.38;4985656;28;20445;-73
2022/06/14 06:55:39;;;;;;;14.02;4.07;;;;;;;15.77;49.39;100293.25;4990900;28;20034;-73
2022/06/14 06:58:12;;;;;;;9.15;3.83;;;;;;;15.68;49.79;100299.16;5004171;28;20773;-73
2022/06/14 07:00:39;;;;;;;21.65;4.32;;;;;;;15.63;50.57;100293.25;5005373;28;20765;-73
2022/06/14 07:03:19;;;;;;;9.02;3.90;;;;;;;15.74;49.94;100296.13;5005490;28;20033;-72
2022/06/14 07:05:49;;;;;;;9.90;4.18;;;;;;;15.81;49.99;100293.94;5005428;28;20057;-72
2022/06/14 07:08:22;;;;;;;7.93;2.65;;;;;;;15.89;49.65;100296.97;5003211;28;20042;-72
2022/06/14 07:10:56;;;;;;;7.93;2.47;;;;;;;16.01;49.71;100296.19;5005068;28;20065;-72
2022/06/14 07:13:34;;;;;;;8.75;3.15;;;;;;;15.95;49.26;100299.25;5004837;28;20038;-72
2022/06/14 07:16:21;;;;;;;10.98;3.88;;;;;;;15.95;49.40;100298.38;5003289;28;20042;-73
2022/06/14 07:19:11;;;;;;;7.97;3.83;;;;;;;16.09;48.85;100307.19;5004757;28;20117;-73
2022/06/14 07:21:42;;;;;;;10.65;3.20;;;;;;;16.22;49.18;100295.75;5005057;28;20045;-73
2022/06/14 07:24:17;;;;;;;10.07;3.55;;;;;;;16.35;48.80;100296.69;4994304;28;20038;-73
2022/06/14 07:26:51;;;;;;;11.43;3.65;;;;;;;16.60;48.32;100297.75;4986894;28;20047;-72
2022/06/14 07:29:19;;;;;;;11.98;3.95;;;;;;;16.90;47.39;100297.53;4976509;28;20050;-73
2022/06/14 07:31:52;;;;;;;15.73;3.80;;;;;;;17.06;46.69;100295.53;4998411;28;20121;-73
2022/06/14 07:34:18;;;;;;;7.57;2.70;;;;;;;17.33;46.27;100298.13;5013261;28;20122;-73
2022/06/14 07:37:05;;;;;;;9.85;3.58;;;;;;;17.59;45.10;100296.28;5012626;28;20035;-73
2022/06/14 07:39:39;;;;;;;8.18;3.67;;;;;;;17.47;45.49;100293.63;5011757;28;20046;-73
2022/06/14 07:42:19;;;;;;;6.88;3.40;;;;;;;17.71;44.66;100291.91;5010786;28;20034;-73
2022/06/14 07:44:51;;;;;;;11.85;4.47;;;;;;;17.88;45.14;100287.22;5009332;28;20100;-72
2022/06/14 07:47:31;;;;;;;10.85;4.32;;;;;;;18.16;44.69;100289.63;5006209;28;20125;-72
2022/06/14 07:50:08;;;;;;;10.20;4.00;;;;;;;18.24;43.96;100294.38;5006602;28;20050;-73
2022/06/14 07:53:04;;;;;;;25.58;5.95;;;;;;;18.19;43.88;100288.53;5008364;28;20057;-74
2022/06/14 07:55:43;;;;;;;9.98;4.00;;;;;;;17.91;43.98;100290.50;5005048;28;20042;-74
2022/06/14 07:58:32;;;;;;;10.15;5.38;;;;;;;17.95;44.61;100291.16;4988779;28;20064;-73
2022/06/14 08:01:15;;;;;;;9.55;4.13;;;;;;;17.88;44.00;100292.56;4988825;28;20569;-72
2022/06/14 08:03:46;;;;;;;11.00;3.65;;;;;;;17.86;44.25;100289.13;4988928;28;20094;-73
2022/06/14 08:06:20;;;;;;;6.80;3.35;;;;;;;17.92;44.56;100289.56;5019161;28;20762;-73
2022/06/14 08:08:51;;;;;;;9.82;3.47;;;;;;;18.10;44.36;100286.53;4988405;28;20458;-73
2022/06/14 08:11:22;;;;;;;14.82;4.70;;;;;;;18.23;43.87;100290.00;4988712;28;20045;-73
2022/06/14 08:13:56;;;;;;;8.05;3.45;;;;;;;18.22;44.25;100283.81;4987117;28;20587;-73
2022/06/14 08:16:22;;;;;;;8.65;2.50;;;;;;;18.29;43.92;100281.56;4987941;28;20042;-73
2022/06/14 08:19:01;;;;;;;12.05;4.82;;;;;;;18.34;43.11;100276.72;4997701;28;20034;-73
2022/06/14 08:21:42;;;;;;;12.77;3.90;;;;;;;18.32;43.72;100275.13;5001519;28;20037;-73
2022/06/14 08:24:14;;;;;;;12.27;4.47;;;;;;;18.51;43.77;100272.81;5007504;28;20081;-73
2022/06/14 08:26:45;;;;;;;14.60;4.55;;;;;;;18.48;42.41;100270.34;5006715;28;20041;-73
2022/06/14 08:29:28;;;;;;;10.75;3.75;;;;;;;18.37;43.20;100263.16;5007275;28;20604;-73
2022/06/14 08:32:09;;;;;;;11.55;3.63;;;;;;;18.37;42.60;100263.16;5006916;28;20046;-73
2022/06/14 08:34:38;;;;;;;10.32;3.45;;;;;;;18.13;43.14;100251.59;5006911;28;20129;-73
2022/06/14 08:37:14;;;;;;;12.40;3.90;;;;;;;18.12;42.80;100253.44;5006292;28;20571;-73
2022/06/14 08:39:46;;;;;;;11.43;3.75;;;;;;;18.19;43.14;100254.69;5006857;28;20038;-73
2022/06/14 08:42:30;;;;;;;14.90;3.97;;;;;;;18.28;43.31;100249.63;5005180;28;20038;-73
2022/06/14 08:44:58;;;;;;;11.25;4.35;;;;;;;18.37;43.45;100238.28;5007265;28;20045;-74
2022/06/14 08:48:07;;;;;;;8.75;3.13;;;;;;;18.61;42.11;100235.59;5004584;28;20049;-74
2022/06/14 08:50:53;;;;;;;15.10;4.32;;;;;;;18.82;42.67;100235.78;5005238;28;20048;-74
2022/06/14 08:53:34;;;;;;;9.43;3.88;;;;;;;19.15;41.73;100231.47;5006604;28;20040;-73
2022/06/14 08:56:17;;;;;;;12.93;4.35;;;;;;;19.43;40.71;100227.50;5006110;28;20030;-74
2022/06/14 08:58:58;;;;;;;7.05;2.97;;;;;;;19.79;40.57;100230.91;5004805;28;20109;-74
2022/06/14 09:01:58;;;;;;;12.57;3.63;;;;;;;20.48;38.92;100230.63;5006200;28;20508;-73
2022/06/14 09:05:14;;;;;;;7.60;3.72;;;;;;;21.09;37.21;100233.44;5005804;28;20521;-73
2022/06/14 09:07:55;;;;;;;;;;;;;;;21.62;36.34;100232.47;4981601;28;20091;-74
2022/06/14 09:10:54;;;;;;;15.98;4.30;;;;;;;21.37;35.92;100239.97;5005891;28;19921;-74
2022/06/14 09:13:42;;;;;;;6.80;2.85;;;;;;;21.51;36.04;100235.25;5005030;28;20490;-73
2022/06/14 09:16:28;;;;;;;9.30;3.80;;;;;;;21.57;35.53;100234.72;4995783;28;20056;-74
2022/06/14 09:18:53;;;;;;;7.82;3.60;;;;;;;21.89;35.59;100229.16;5002709;28;20478;-74
2022/06/14 09:21:36;;;;;;;12.30;3.30;;;;;;;22.33;34.06;100226.16;5006615;28;20049;-74
2022/06/14 09:24:17;;;;;;;17.25;3.55;;;;;;;22.65;33.38;100225.88;5005887;28;20308;-73
2022/06/14 09:27:11;;;;;;;7.43;4.35;;;;;;;23.55;32.08;100222.72;5004850;28;20053;-73
2022/06/14 09:29:46;;;;;;;11.40;4.47;;;;;;;24.63;32.29;100212.09;5000488;28;20099;-51
2022/06/14 09:32:29;;;;;;;9.32;3.58;;;;;;;25.46;29.46;100212.50;5005382;28;20065;-47
2022/06/14 09:35:32;;;;;;;9.98;5.53;;;;;;;26.05;29.27;100214.44;5005456;28;20069;-48
2022/06/14 09:38:40;;;;;;;8.50;4.32;;;;;;;26.43;28.17;100215.66;5003111;28;20595;-53
2022/06/14 09:41:17;;;;;;;8.35;4.13;;;;;;;26.60;28.68;100203.03;5005424;28;20038;-51
2022/06/14 09:44:02;;;;;;;8.65;4.18;;;;;;;26.95;27.18;100204.53;5006089;28;20045;-51
2022/06/14 09:46:48;;;;;;;18.00;5.23;;;;;;;26.86;27.54;100207.44;5005097;28;20060;-53
2022/06/14 09:49:16;;;;;;;9.45;4.50;;;;;;;27.08;27.05;100195.06;5005760;28;20516;-49
2022/06/14 09:51:51;;;;;;;7.00;4.00;;;;;;;27.51;26.49;100195.59;5005744;28;20053;-54
2022/06/14 09:54:59;;;;;;;5.70;3.35;;;;;;;27.85;26.04;100199.88;5006171;28;20053;-52
2022/06/14 09:58:02;;;;;;;11.68;5.43;;;;;;;27.81;27.03;100202.94;5000795;28;20417;-50
2022/06/14 10:00:44;;;;;;;9.45;4.15;;;;;;;28.18;25.71;100197.81;5005533;28;20132;-50
2022/06/14 10:03:37;;;;;;;7.53;3.95;;;;;;;28.09;26.54;100196.19;5005607;28;20042;-51
2022/06/14 10:06:29;;;;;;;10.25;4.75;;;;;;;27.61;27.51;100199.78;5004897;28;20053;-54
2022/06/14 10:09:04;;;;;;;12.13;5.25;;;;;;;27.17;27.55;100204.81;5005603;28;20048;-49
2022/06/14 10:11:47;;;;;;;;;;;;;;;26.92;27.46;100198.63;5005307;28;20049;-54
2022/06/14 10:14:35;;;;;;;8.00;3.90;;;;;;;27.15;27.42;100199.59;4999819;28;20646;-48
2022/06/14 10:17:24;;;;;;;11.40;4.43;;;;;;;27.37;27.27;100192.63;5004585;28;20038;-73
2022/06/14 10:20:19;;;;;;;10.02;4.65;;;;;;;27.83;26.21;100189.22;5003433;28;20044;-72
2022/06/14 10:22:56;;;;;;;;;;;;;;;27.91;26.25;100177.47;5005438;28;20447;-73
2022/06/14 10:25:29;;;;;;;11.65;4.35;;;;;;;27.79;26.32;100182.47;5005743;28;19921;-73
2022/06/14 10:28:14;;;;;;;11.20;4.32;;;;;;;27.73;26.79;100181.28;5004202;28;20129;-73
2022/06/14 10:31:03;;;;;;;11.77;4.65;;;;;;;27.82;26.95;100174.84;5005235;28;20042;-73
2022/06/14 10:33:39;;;;;;;11.25;4.05;;;;;;;28.01;26.29;100173.53;5000071;28;20117;-73
2022/06/14 10:36:20;;;;;;;17.70;5.10;;;;;;;28.34;26.09;100176.00;4998148;28;20767;-73
2022/06/14 10:38:52;;;;;;;10.52;4.90;;;;;;;27.53;27.16;100177.31;4995473;28;20034;-73
2022/06/14 10:41:24;;;;;;;10.27;3.90;;;;;;;27.58;27.43;100172.22;5000359;28;20048;-73
2022/06/14 10:44:29;;;;;;;9.10;4.28;;;;;;;27.90;27.03;100170.41;5004767;28;20120;-72
2022/06/14 10:47:29;;;;;;;11.10;4.60;;;;;;;27.22;27.77;100167.28;4994370;28;20038;-72
2022/06/14 10:56:13;;;;;;;9.52;4.53;;;;;;;27.91;26.48;100161.22;4992084;27;20918;-75
2022/06/14 10:58:47;;;;;;;12.23;4.90;;;;;;;26.94;27.82;100164.94;4984990;28;20054;-74
2022/06/14 11:01:31;;;;;;;5.93;3.70;;;;;;;26.36;28.88;100157.91;4985425;28;20038;-74
2022/06/14 11:04:12;;;;;;;10.27;4.53;;;;;;;25.21;30.02;100156.72;5018923;28;20124;-70
2022/06/14 11:06:52;;;;;;;9.20;4.03;;;;;;;24.36;31.59;100151.88;5021671;28;20042;-71
2022/06/14 11:09:44;;;;;;;10.13;3.95;;;;;;;23.98;31.77;100153.06;5022168;28;20125;-71
2022/06/14 11:12:24;;;;;;;11.52;4.32;;;;;;;23.65;32.69;100149.97;5021541;28;20380;-70
2022/06/14 11:15:08;;;;;;;10.15;4.43;;;;;;;23.29;33.00;100144.50;5021718;28;20040;-70
2022/06/14 11:17:46;;;;;;;17.85;4.07;;;;;;;23.31;33.12;100142.50;5020694;28;20045;-71
2022/06/14 11:20:51;;;;;;;9.30;3.90;;;;;;;23.24;33.03;100136.03;5021474;28;20069;-71
2022/06/14 11:23:37;;;;;;;15.57;5.10;;;;;;;23.24;33.69;100132.50;5009499;28;20044;-70
2022/06/14 11:26:21;;;;;;;9.80;5.03;;;;;;;23.05;34.35;100138.81;5020814;28;20033;-71
2022/06/14 11:28:53;;;;;;;12.43;5.03;;;;;;;22.73;34.78;100129.25;5020257;28;20461;-71
2022/06/14 11:31:24;;;;;;;9.27;4.57;;;;;;;22.67;35.23;100125.31;5041675;28;20067;-70
2022/06/14 11:34:13;;;;;;;9.45;5.45;;;;;;;22.55;35.42;100122.94;5019695;28;20033;-70
2022/06/14 11:36:47;;;;;;;7.28;3.35;;;;;;;22.65;35.13;100115.69;5020595;28;20532;-70
2022/06/14 11:39:23;;;;;;;11.43;4.97;;;;;;;22.35;35.33;100120.28;5019895;28;20092;-69
2022/06/14 11:41:50;;;;;;;11.02;4.00;;;;;;;22.29;36.21;100107.41;5008706;28;20075;-70
2022/06/14 11:45:02;;;;;;;14.50;4.53;;;;;;;22.32;35.95;100099.03;5021380;28;20497;-70
2022/06/14 11:47:42;;;;;;;13.85;4.72;;;;;;;22.29;36.15;100108.25;5001843;28;20133;-71
2022/06/14 11:50:43;;;;;;;7.55;4.60;;;;;;;22.16;36.93;100107.66;5020409;28;20038;-71
2022/06/14 11:53:22;;;;;;;7.82;3.50;;;;;;;22.06;36.98;100106.81;5018742;28;20512;-71
2022/06/14 11:56:11;;;;;;;11.18;4.93;;;;;;;22.13;36.29;100099.06;5020249;28;20045;-71
2022/06/14 11:59:14;;;;;;;9.68;4.20;;;;;;;22.11;36.75;100103.72;5010417;28;20038;-71
2022/06/14 12:02:22;;;;;;;10.55;3.70;;;;;;;22.32;36.49;100104.41;5012806;28;20594;-71
2022/06/14 12:05:01;;;;;;;11.27;4.45;;;;;;;22.08;37.29;100094.94;5024403;28;20045;-70
2022/06/14 12:07:39;;;;;;;10.63;4.82;;;;;;;21.83;37.08;100092.81;5019339;28;20463;-70
2022/06/14 12:10:44;;;;;;;10.82;4.75;;;;;;;22.03;37.31;100102.59;5027451;28;20049;-70
2022/06/14 12:13:32;;;;;;;7.65;3.92;;;;;;;21.99;37.05;100095.78;5007876;28;20030;-70
2022/06/14 12:16:13;;;;;;;8.52;4.00;;;;;;;22.09;37.17;100091.25;5006088;28;20065;-70
2022/06/14 12:18:43;;;;;;;11.98;4.95;;;;;;;22.26;36.95;100087.03;5013412;28;20082;-70
2022/06/14 12:21:35;;;;;;;9.40;4.57;;;;;;;22.08;37.00;100086.06;5017508;28;20038;-70
2022/06/14 12:24:06;;;;;;;11.30;4.28;;;;;;;22.16;37.86;100080.81;5018373;28;20048;-70
2022/06/14 12:27:00;;;;;;;13.18;4.60;;;;;;;22.20;37.18;100089.44;5015173;28;20041;-72
2022/06/14 12:29:45;;;;;;;18.42;4.55;;;;;;;22.08;37.59;100080.69;5011397;28;20484;-70
2022/06/14 12:32:35;;;;;;;6.32;3.60;;;;;;;22.15;37.68;100075.56;5008119;28;20049;-71
2022/06/14 12:35:07;;;;;;;11.82;5.07;;;;;;;22.06;37.67;100069.25;4997743;28;20042;-72